URSS 290400Z 00000MPS 9999 NSC 07/05 Q1019 R06/010070 R02/////// NOSIG RMK R02/04005MPS QFE763
QNH:(hPa/inHg/mmHg)1019 / 30.09 / 764
QFE:(hPa/inHg/mmHg)1016 / 29.99 / 762
Temperature7
Dew Point5
Visibility> 10000
Weather
Cloud Cover
Transition Altitude13000 ft.
Transition LevelFL140
SQUAWK